• Join FlightAware (Why Join?)
  • Login
  • US Flag 
11:28PM EDT


 

Airport Tracker/Info


-or-


 

Live Flight TrackerFlight Track Log ✈ UAL1024 ✈ 17-Nov-2013 ✈ KLAX - KBOS

Flight Track Log - Related Links

Times and Time Zones

All times are in EST time to prevent confusion due to time zone crossing. See the UAL1024 flight status page for this flight to view local times or setup timezone preferences in your user account.

Time Position Orientation Groundspeed Altitude Reporting Facility
EST Latitude Longitude Course Direction KTS MPH feet Rate Location/Type
11:30AM 33.9203 -118.5036 251° West 238 274 3,000  Level FlightAware ADS-B (KCRQ)
11:30AM 33.9075 -118.5424 248° West 229 264 5,000 2,400 Climbing FlightAware ADS-B (KCRQ)
11:31AM 33.8586 -118.5606 197° South 270 311 6,200 1,740 Climbing FlightAware ADS-B (KCRQ)
11:31AM 33.8503 -118.5554 153° Southeast 272 313 6,600 3,000 Climbing FlightAware ADS-B (KCRQ)
11:31AM 33.8353 -118.5294 125° Southeast 259 298 7,700 2,880 Climbing FlightAware ADS-B (KCRQ)
11:32AM 33.8342 -118.5166 96° East 261 300 8,000 6,300 Climbing FlightAware ADS-B (KCRQ)
11:32AM 33.8355 -118.5063 81° East 267 307 9,500 2,760 Climbing FlightAware ADS-B (KCRQ)
11:32AM 33.8800 -118.4620 40° Northeast 263 303 10,700 1,500 Climbing FlightAware
11:33AM 33.9200 -118.4400 25° Northeast 291 335 11,600 1,380 Climbing FlightAware
11:34AM 33.9550 -118.3970 46° Northeast 330 380 12,300 1,320 Climbing FlightAware
11:34AM 33.9920 -118.3300 56° Northeast 365 420 13,300 2,100 Climbing FlightAware
11:35AM 34.0252 -118.2702 56° Northeast 374 430 15,000 2,460 Climbing FlightAware ADS-B (KCRQ)
11:36AM 34.0820 -118.1700 56° Northeast 378 435 17,200 2,160 Climbing FlightAware
11:36AM 34.1160 -118.1100 56° Northeast 383 441 18,400 1,920 Climbing FlightAware
11:37AM 34.1480 -118.0540 55° Northeast 395 455 19,300 1,800 Climbing FlightAware
11:38AM 34.2180 -117.9290 56° Northeast 406 467 21,400 1,860 Climbing FlightAware
11:39AM 34.2530 -117.8670 56° Northeast 410 472 22,400 1,680 Climbing FlightAware
11:40AM 34.3160 -117.7550 56° Northeast 422 486 24,000 1,500 Climbing FlightAware
11:40AM 34.3670 -117.6620 56° Northeast 430 495 25,100 1,320 Climbing FlightAware
11:41AM 34.4050 -117.5950 55° Northeast 437 503 25,800 1,260 Climbing FlightAware
11:42AM 34.4540 -117.5060 56° Northeast 445 512 26,700 1,260 Climbing FlightAware
11:42AM 34.4920 -117.4390 55° Northeast 450 518 27,400 1,080 Climbing FlightAware
11:43AM 34.5340 -117.3770 51° Northeast 454 522 27,900 960 Climbing FlightAware
11:43AM 34.5930 -117.2960 48° Northeast 463 533 28,600 1,020 Climbing FlightAware
11:44AM 34.6390 -117.2310 49° Northeast 469 540 29,200 1,020 Climbing FlightAware
11:45AM 34.7000 -117.1460 49° Northeast 475 547 29,900 1,080 Climbing FlightAware
11:45AM 34.7540 -117.0700 49° Northeast 474 545 30,700 1,380 Climbing FlightAware
11:46AM 34.8030 -117.0010 49° Northeast 470 541 31,600 1,440 Climbing FlightAware
11:46AM 34.8550 -116.9290 49° Northeast 467 537 32,400 1,140 Climbing FlightAware
11:48AM 34.9480 -116.7980 49° Northeast 463 533 33,600 1,080 Climbing FlightAware
11:48AM 34.9940 -116.7330 49° Northeast 462 532 34,200 840 Climbing FlightAware
11:49AM 35.0510 -116.6510 50° Northeast 463 533 34,700 420 Climbing FlightAware
11:50AM 35.1350 -116.5310 49° Northeast 466 536 35,000 120 Climbing FlightAware
11:51AM 35.2270 -116.4000 49° Northeast 465 535 35,000  Level FlightAware
11:51AM 35.2680 -116.3420 49° Northeast 464 534 35,000  Level FlightAware
11:52AM 35.3480 -116.2270 50° Northeast 465 535 35,000  Level FlightAware
11:53AM 35.4040 -116.1470 49° Northeast 466 536 35,000  Level FlightAware
11:54AM 35.4870 -116.0280 49° Northeast 466 536 35,000  Level FlightAware
11:55AM 35.5350 -115.9580 50° Northeast 466 536 35,000  Level FlightAware
11:55AM 35.5770 -115.8970 50° Northeast 466 536 35,000  Level FlightAware
11:56AM 35.6300 -115.8190 50° Northeast 466 536 35,000  Level FlightAware
11:56AM 35.6780 -115.7510 49° Northeast 467 537 35,000  Level FlightAware
11:57AM 35.7350 -115.6670 50° Northeast 469 540 35,000  Level FlightAware
11:58AM 35.7860 -115.5920 50° Northeast 469 540 35,000  Level FlightAware
11:58AM 35.8290 -115.5300 49° Northeast 469 540 35,000  Level FlightAware
11:59AM 35.8710 -115.4670 51° Northeast 471 542 35,000  Level FlightAware
11:59AM 35.9210 -115.3950 49° Northeast 472 543 35,000  Level FlightAware
12:00PM 35.9590 -115.3390 50° Northeast 473 544 35,000  Level FlightAware
12:00PM 36.0080 -115.2660 50° Northeast 474 545 35,000  Level FlightAware
12:01PM 36.0640 -115.1820 50° Northeast 475 547 35,000  Level FlightAware
12:01PM 36.1030 -115.1110 56° Northeast 480 552 35,000  Level FlightAware
12:02PM 36.1670 -114.9730 60° Northeast 481 554 35,000  Level FlightAware
12:03PM 36.2100 -114.8820 60° Northeast 480 552 35,000  Level FlightAware
12:03PM 36.2400 -114.8160 61° Northeast 481 554 35,000  Level FlightAware
12:04PM 36.2880 -114.7140 60° Northeast 482 555 35,000  Level FlightAware
12:05PM 36.3630 -114.5530 60° Northeast 481 554 35,000  Level FlightAware
12:06PM 36.3980 -114.4770 60° Northeast 480 552 35,000  Level FlightAware
12:07PM 36.4700 -114.3210 60° Northeast 480 552 35,000  Level FlightAware
12:08PM 36.5310 -114.1890 60° Northeast 479 551 35,000  Level FlightAware
12:08PM 36.5660 -114.1130 60° Northeast 479 551 35,000  Level FlightAware
12:09PM 36.6030 -114.0310 61° Northeast 480 552 35,000  Level FlightAware
12:09PM 36.6390 -113.9520 60° Northeast 480 552 35,000  Level FlightAware
12:10PM 36.6710 -113.8810 61° Northeast 480 552 35,000  Level FlightAware
12:10PM 36.7000 -113.8160 61° Northeast 480 552 35,000  Level FlightAware
12:12PM 36.7700 -113.6630 60° Northeast 481 554 35,000  Level FlightAware
12:12PM 36.8140 -113.5650 61° Northeast 483 556 35,000  Level FlightAware
12:13PM 36.8510 -113.4820 61° Northeast 484 557 35,000  Level FlightAware
12:13PM 36.8740 -113.4290 62° Northeast 484 557 35,000  Level FlightAware
12:14PM 36.9230 -113.3210 60° Northeast 487 560 35,000  Level FlightAware
12:15PM 36.9710 -113.2130 61° Northeast 488 562 35,000  Level FlightAware
12:15PM 37.0040 -113.1380 61° Northeast 487 560 35,000  Level FlightAware
12:16PM 37.0480 -113.0380 61° Northeast 483 556 35,000  Level FlightAware
12:16PM 37.0720 -112.9830 61° Northeast 483 556 35,000  Level FlightAware
12:17PM 37.1210 -112.8740 61° Northeast 483 556 35,000  Level FlightAware
12:18PM 37.1600 -112.7850 61° Northeast 484 557 35,000  Level FlightAware
12:18PM 37.1940 -112.7070 61° Northeast 484 557 35,000  Level FlightAware
12:19PM 37.2450 -112.5900 61° Northeast 484 557 35,000  Level FlightAware
12:19PM 37.2550 -112.5660 62° Northeast 484 557 35,000  Level FlightAware
12:20PM 37.3100 -112.4390 61° Northeast 485 558 35,000  Level FlightAware
12:21PM 37.3420 -112.3620 62° Northeast 485 558 35,000  Level FlightAware
12:21PM 37.3750 -112.2860 61° Northeast 485 558 35,000  Level FlightAware
12:22PM 37.4070 -112.2100 62° Northeast 485 558 35,000  Level FlightAware
12:23PM 37.4610 -112.0830 62° Northeast 485 558 35,000  Level FlightAware
12:23PM 37.4930 -112.0060 62° Northeast 485 558 35,000  Level FlightAware
12:24PM 37.5250 -111.9300 62° Northeast 485 558 35,000  Level FlightAware
12:25PM 37.5680 -111.8280 62° Northeast 485 558 35,000  Level FlightAware
12:26PM 37.7014 -111.6068 53° Northeast 490 564 35,000  Level FlightAware ADS-B (KMTJ)
12:27PM 37.7858 -111.4404 57° Northeast 489 563 35,000  Level FlightAware ADS-B (KMTJ)
12:27PM 37.8205 -111.3719 57° Northeast 489 563 35,000  Level FlightAware ADS-B (KMTJ)
12:28PM 37.8686 -111.2771 57° Northeast 486 559 35,000  Level FlightAware ADS-B (KMTJ)
12:29PM 37.9222 -111.1707 57° Northeast 486 559 35,000  Level FlightAware ADS-B (KMTJ)
12:29PM 37.9554 -111.1045 58° Northeast 486 559 35,000  Level FlightAware ADS-B (KMTJ)
12:30PM 38.0058 -111.0036 58° Northeast 488 562 35,000  Level FlightAware ADS-B (KMTJ)
12:31PM 38.0707 -110.8738 58° Northeast 492 566 35,000  Level FlightAware ADS-B (KMTJ)
12:31PM 38.1162 -110.7824 58° Northeast 494 568 35,000  Level FlightAware ADS-B (KMTJ)
12:32PM 38.1522 -110.7099 58° Northeast 495 570 35,000  Level FlightAware ADS-B (KMTJ)
12:32PM 38.1901 -110.6334 58° Northeast 496 571 35,000  Level FlightAware ADS-B (KMTJ)
12:33PM 38.2259 -110.5607 58° Northeast 497 572 35,000  Level FlightAware ADS-B (KMTJ)
12:33PM 38.2740 -110.4628 58° Northeast 498 573 35,000  Level FlightAware ADS-B (KMTJ)
12:34PM 38.3124 -110.3845 58° Northeast 499 574 35,000  Level FlightAware ADS-B (KMTJ)
12:34PM 38.3490 -110.3097 58° Northeast 500 575 35,000  Level FlightAware ADS-B (KMTJ)
12:35PM 38.3928 -110.2200 58° Northeast 503 579 35,000  Level FlightAware ADS-B (KMTJ)
12:36PM 38.4326 -110.1383 58° Northeast 504 580 35,000  Level FlightAware ADS-B (KMTJ)
12:36PM 38.4786 -110.0444 58° Northeast 506 582 35,000  Level FlightAware ADS-B (KMTJ)
12:37PM 38.5160 -109.9598 60° Northeast 511 588 35,000  Level FlightAware ADS-B (KMTJ)
12:38PM 38.5685 -109.8255 63° Northeast 510 587 35,000  Level FlightAware ADS-B (KMTJ)
12:39PM 38.6427 -109.6350 63° Northeast 510 587 35,000  Level FlightAware ADS-B (KMTJ)
12:39PM 38.6768 -109.5471 64° Northeast 510 587 35,000  Level FlightAware ADS-B (KMTJ)
12:40PM 38.7084 -109.4653 64° Northeast 509 586 35,000  Level FlightAware ADS-B (KMTJ)
12:40PM 38.7405 -109.3820 64° Northeast 508 585 35,000  Level FlightAware ADS-B (KMTJ)
12:41PM 38.7689 -109.3082 64° Northeast 508 585 35,000  Level FlightAware ADS-B (KMTJ)
12:41PM 38.8044 -109.2160 64° Northeast 507 583 35,000  Level FlightAware ADS-B (KMTJ)
12:42PM 38.8350 -109.1362 64° Northeast 506 582 35,000  Level FlightAware ADS-B (KMTJ)
12:42PM 38.8757 -109.0300 64° Northeast 506 582 35,000  Level FlightAware ADS-B (KMTJ)
12:43PM 38.9062 -108.9498 64° Northeast 506 582 35,000  Level FlightAware ADS-B (KMTJ)
12:43PM 38.9370 -108.8685 64° Northeast 505 581 35,000  Level FlightAware ADS-B (KMTJ)
12:44PM 38.9685 -108.7852 64° Northeast 507 583 35,000  Level FlightAware ADS-B (KMTJ)
12:44PM 38.9991 -108.7043 64° Northeast 508 585 35,000  Level FlightAware ADS-B (KMTJ)
12:45PM 39.0409 -108.5933 64° Northeast 509 586 35,000  Level FlightAware ADS-B (KMTJ)
12:46PM 39.0718 -108.5104 64° Northeast 510 587 35,000  Level FlightAware ADS-B (KMTJ)
12:46PM 39.1022 -108.4287 64° Northeast 511 588 35,000  Level FlightAware ADS-B (KMTJ)
12:47PM 39.1328 -108.3465 64° Northeast 509 586 35,000  Level FlightAware ADS-B (KMTJ)
12:47PM 39.1651 -108.2597 64° Northeast 507 583 35,000  Level FlightAware ADS-B (KMTJ)
12:48PM 39.2055 -108.1512 64° Northeast 506 582 35,000  Level FlightAware ADS-B (KMTJ)
12:48PM 39.2348 -108.0722 64° Northeast 505 581 35,000  Level FlightAware ADS-B (KMTJ)
12:49PM 39.2652 -107.9899 64° Northeast 505 581 35,000  Level FlightAware ADS-B (KMTJ)
12:49PM 39.3008 -107.8932 65° Northeast 505 581 35,000  Level FlightAware ADS-B (KMTJ)
12:50PM 39.3367 -107.7949 65° Northeast 503 579 35,000  Level FlightAware ADS-B (KMTJ)
12:51PM 39.3726 -107.6968 65° Northeast 503 579 35,000  Level FlightAware ADS-B (KMTJ)
12:51PM 39.4065 -107.6036 65° Northeast 503 579 35,000  Level FlightAware ADS-B (KMTJ)
12:52PM 39.4359 -107.5224 65° Northeast 502 578 35,000  Level FlightAware ADS-B (KMTJ)
12:52PM 39.4718 -107.4233 65° Northeast 502 578 35,000  Level FlightAware ADS-B (KMTJ)
12:53PM 39.5113 -107.3137 65° Northeast 502 578 35,000  Level FlightAware ADS-B (KMTJ)
12:54PM 39.5432 -107.2248 65° Northeast 502 578 35,000  Level FlightAware ADS-B (KMTJ)
12:54PM 39.5726 -107.1426 65° Northeast 503 579 35,000  Level FlightAware ADS-B (KMTJ)
12:55PM 39.5988 -107.0693 65° Northeast 505 581 35,000  Level FlightAware ADS-B (KMTJ)
12:55PM 39.6321 -106.9758 65° Northeast 505 581 35,000  Level FlightAware ADS-B (KMTJ)
12:56PM 39.6638 -106.8862 65° Northeast 506 582 35,000  Level FlightAware ADS-B (KMTJ)
12:56PM 39.7025 -106.7770 65° Northeast 507 583 35,000  Level FlightAware ADS-B (KMTJ)
12:57PM 39.7450 -106.6570 65° Northeast 509 586 35,000  Level FlightAware
12:58PM 39.7870 -106.5360 66° East 511 588 35,000  Level FlightAware
12:58PM 39.8160 -106.4410 68° East 513 590 35,000  Level FlightAware
12:59PM 39.8670 -106.2640 69° East 524 603 35,000  Level FlightAware
01:00PM 39.8980 -106.1580 69° East 525 604 35,000  Level FlightAware
01:00PM 39.9260 -106.0630 69° East 528 608 35,000  Level FlightAware
01:01PM 39.9540 -105.9660 69° East 531 611 35,000  Level FlightAware
01:02PM 39.9890 -105.8450 69° East 528 608 35,000  Level FlightAware
01:02PM 40.0150 -105.7540 70° East 528 608 35,000  Level FlightAware
01:03PM 40.0480 -105.6390 69° East 531 611 35,000  Level FlightAware
01:04PM 40.0880 -105.4950 70° East 505 581 35,000  Level FlightAware
01:04PM 40.1130 -105.4090 69° East 497 572 35,000  Level FlightAware
01:05PM 40.1420 -105.3050 70° East 500 575 35,000  Level FlightAware
01:06PM 40.1900 -105.1350 70° East 497 572 35,000  Level FlightAware
01:07PM 40.2299 -104.9913 70° East 502 578 35,000  Level FlightAware ADS-B (KBJC)
01:07PM 40.2712 -104.8422 70° East 509 586 35,100 300 Climbing FlightAware ADS-B (KBJC)
01:08PM 40.3150 -104.6827 70° East 518 596 35,600 480 Climbing FlightAware ADS-B (KBJC)
01:09PM 40.3533 -104.5430 70° East 525 604 35,900 660 Climbing FlightAware ADS-B (KBJC)
01:10PM 40.4110 -104.3300 70° East 522 601 36,900 480 Climbing FlightAware
01:11PM 40.4630 -104.1390 70° East 522 601 37,000 60 Climbing FlightAware
01:12PM 40.4910 -104.0340 71° East 521 600 37,000  Level FlightAware
01:12PM 40.5170 -103.9350 71° East 522 601 37,000  Level FlightAware
01:13PM 40.5450 -103.8260 71° East 522 601 37,000  Level FlightAware
01:13PM 40.5610 -103.7650 71° East 522 601 37,000  Level FlightAware
01:14PM 40.5880 -103.6600 71° East 519 597 37,000  Level FlightAware
01:15PM 40.6390 -103.4600 71° East 521 600 37,000  Level FlightAware
01:16PM 40.6710 -103.3360 71° East 523 602 37,000  Level FlightAware
01:16PM 40.6990 -103.2260 71° East 525 604 37,000  Level FlightAware
01:17PM 40.7480 -103.0300 72° East 528 608 37,000  Level FlightAware
01:18PM 40.7770 -102.9140 72° East 528 608 37,000  Level FlightAware
01:19PM 40.8060 -102.7960 72° East 533 613 37,000  Level FlightAware
01:20PM 40.8450 -102.6370 72° East 537 618 37,000  Level FlightAware
01:20PM 40.8770 -102.5070 72° East 535 616 37,000  Level FlightAware
01:21PM 40.9190 -102.3340 72° East 528 608 37,000  Level FlightAware
01:22PM 40.9400 -102.2480 72° East 528 608 37,000  Level FlightAware
01:22PM 40.9650 -102.1460 72° East 529 609 37,000  Level FlightAware
01:23PM 40.9920 -102.0350 72° East 530 610 37,000  Level FlightAware
01:24PM 41.0370 -101.8560 72° East 522 601 37,000  Level FlightAware
01:24PM 41.0560 -101.7850 70° East 520 598 37,000  Level FlightAware
01:25PM 41.0860 -101.6700 71° East 520 598 37,000  Level FlightAware
01:26PM 41.1340 -101.4800 71° East 520 598 37,000  Level FlightAware
01:27PM 41.1700 -101.3390 71° East 520 598 37,000  Level FlightAware
01:28PM 41.2050 -101.2010 71° East 522 601 37,000  Level FlightAware
01:28PM 41.2180 -101.1480 72° East 523 602 37,000  Level FlightAware
01:29PM 41.2420 -101.0490 72° East 523 602 37,000  Level FlightAware
01:29PM 41.2670 -100.9480 72° East 523 602 37,000  Level FlightAware
01:30PM 41.2900 -100.8520 72° East 523 602 37,000  Level FlightAware
01:31PM 41.3220 -100.7240 72° East 523 602 37,000  Level FlightAware
01:31PM 41.3370 -100.6610 72° East 523 602 37,000  Level FlightAware
01:32PM 41.3600 -100.5680 72° East 523 602 37,000  Level FlightAware
01:32PM 41.3810 -100.4790 73° East 523 602 37,000  Level FlightAware
01:36PM 41.5859 -99.6692 71° East 541 623 37,000  Level FlightAware ADS-B
01:36PM 41.6108 -99.5730 71° East 542 624 37,000  Level FlightAware ADS-B
01:39PM 41.7440 -99.0457 71° East 547 629 37,000  Level FlightAware ADS-B
01:40PM 41.8160 -98.7560 71° East 546 628 37,000  Level FlightAware
01:41PM 41.8508 -98.6137 72° East 546 628 37,000  Level FlightAware ADS-B
01:42PM 41.8700 -98.5354 72° East 545 627 37,000  Level FlightAware ADS-B
01:43PM 41.9250 -98.3120 72° East 546 628 37,000  Level FlightAware
01:43PM 41.9500 -98.2080 72° East 547 629 37,000  Level FlightAware
01:44PM 41.9715 -98.1196 72° East 551 634 37,000  Level FlightAware ADS-B
01:44PM 42.0040 -97.9800 73° East 555 639 37,000  Level FlightAware
01:45PM 42.0370 -97.7940 77° East 548 631 37,000  Level FlightAware
01:46PM 42.0610 -97.6630 76° East 541 623 37,000  Level FlightAware
01:47PM 42.0790 -97.5650 76° East 537 618 37,000  Level FlightAware
01:47PM 42.1023 -97.4331 77° East 539 620 37,000  Level FlightAware ADS-B
01:48PM 42.1196 -97.3346 77° East 538 619 37,000  Level FlightAware ADS-B
01:49PM 42.1470 -97.1780 77° East 539 620 37,000  Level FlightAware
01:49PM 42.1650 -97.0740 77° East 539 620 37,000  Level FlightAware
01:50PM 42.1830 -96.9680 77° East 539 620 37,000  Level FlightAware
01:50PM 42.2060 -96.8400 76° East 539 620 37,000  Level FlightAware
01:51PM 42.2260 -96.7190 77° East 539 620 37,000  Level FlightAware
01:51PM 42.2450 -96.6110 77° East 538 619 37,000  Level FlightAware
01:52PM 42.2630 -96.5040 77° East 539 620 37,000  Level FlightAware
01:53PM 42.2950 -96.3090 77° East 537 618 37,000  Level FlightAware
01:54PM 42.3120 -96.2080 77° East 536 617 37,000  Level FlightAware
01:54PM 42.3300 -96.1000 77° East 536 617 37,000  Level FlightAware
01:55PM 42.3440 -96.0170 77° East 534 615 37,000  Level FlightAware
01:55PM 42.3640 -95.8950 77° East 533 613 37,000  Level FlightAware
01:56PM 42.3820 -95.7830 78° East 530 610 37,000  Level FlightAware
01:56PM 42.3960 -95.6920 78° East 529 609 37,000  Level FlightAware
01:57PM 42.4190 -95.5470 78° East 529 609 37,000  Level FlightAware
01:58PM 42.4529 -95.3341 78° East 530 610 37,000  Level FlightAware ADS-B (KMCW)
01:59PM 42.4706 -95.2213 78° East 529 609 37,000  Level FlightAware ADS-B (KMCW)
01:59PM 42.4880 -95.1090 78° East 530 610 37,000  Level FlightAware
02:00PM 42.5063 -94.9908 78° East 532 612 37,000  Level FlightAware ADS-B (KMCW)
02:01PM 42.5510 -94.7000 78° East 533 613 37,000  Level FlightAware
02:02PM 42.5809 -94.4980 79° East 535 616 37,000  Level FlightAware ADS-B (KMCW)
02:03PM 42.5925 -94.4205 78° East 537 618 37,000  Level FlightAware ADS-B (KMCW)
02:03PM 42.6101 -94.3013 79° East 537 618 37,000  Level FlightAware ADS-B (KMCW)
02:04PM 42.6240 -94.1740 82° East 537 618 37,000  Level FlightAware
02:05PM 42.6380 -94.0450 82° East 537 618 37,000  Level FlightAware
02:05PM 42.6550 -93.8883 82° East 538 619 37,000  Level FlightAware ADS-B (KMCW)
02:07PM 42.6880 -93.5770 82° East 532 612 37,000  Level FlightAware
02:07PM 42.6990 -93.4630 82° East 531 611 37,000  Level FlightAware
02:08PM 42.7120 -93.3390 82° East 529 609 37,000  Level FlightAware
02:08PM 42.7191 -93.2673 82° East 530 610 37,000  Level FlightAware ADS-B (KMCW)
02:09PM 42.7320 -93.1410 82° East 527 606 37,000  Level FlightAware
02:10PM 42.7486 -92.9713 82° East 527 606 37,000  Level FlightAware ADS-B (KMCW)
02:11PM 42.7600 -92.8510 83° East 526 605 37,000  Level FlightAware
02:11PM 42.7716 -92.7323 82° East 526 605 37,000  Level FlightAware ADS-B (KMCW)
02:12PM 42.7820 -92.6227 83° East 526 605 37,000  Level FlightAware ADS-B (KMCW)
02:12PM 42.7896 -92.5434 83° East 526 605 37,000  Level FlightAware ADS-B (KMCW)
02:13PM 42.7998 -92.4336 83° East 527 606 37,000  Level FlightAware ADS-B (KMCW)
02:14PM 42.8184 -92.2314 83° East 527 606 37,000  Level FlightAware ADS-B (KMCW)
02:14PM 42.8308 -92.1013 83° East 526 605 37,000  Level FlightAware ADS-B (KMCW)
02:15PM 42.8408 -91.9924 83° East 524 603 37,000  Level FlightAware ADS-B (KMCW)
02:16PM 42.8505 -91.8796 83° East 522 601 37,000  Level FlightAware ADS-B (KMCW)
02:16PM 42.8653 -91.7063 83° East 521 600 37,000  Level FlightAware ADS-B (KMCW)
02:17PM 42.8761 -91.5799 83° East 521 600 37,000  Level FlightAware ADS-B (KMCW)
02:18PM 42.8850 -91.4734 83° East 519 597 37,000  Level FlightAware ADS-B (KMCW)
02:18PM 42.8849 -91.4747 264° West 518 596 37,000  Level FlightAware ADS-B (KMCW)
02:19PM 42.9073 -91.2074 83° East 517 595 37,000  Level FlightAware ADS-B (KMCW)
02:20PM 42.9155 -91.1033 84° East 518 596 37,000  Level FlightAware ADS-B (KMCW)
02:20PM 42.9274 -90.9561 84° East 519 597 37,000  Level FlightAware ADS-B (KMCW)
02:21PM 42.9355 -90.8560 84° East 520 598 37,000  Level FlightAware ADS-B (KMCW)
02:21PM 42.9424 -90.7720 84° East 520 598 37,000  Level FlightAware ADS-B (KMCW)
02:22PM 42.9540 -90.6280 84° East 521 600 37,000  Level FlightAware
02:22PM 42.9600 -90.5430 84° East 521 600 37,000  Level FlightAware
02:23PM 42.9700 -90.4060 84° East 521 600 37,000  Level FlightAware
02:24PM 42.9780 -90.2990 84° East 522 601 37,000  Level FlightAware
02:24PM 42.9870 -90.1780 84° East 524 603 37,000  Level FlightAware
02:25PM 42.9950 -90.0700 84° East 527 606 37,000  Level FlightAware
02:25PM 43.0010 -89.9880 84° East 528 608 37,000  Level FlightAware
02:26PM 43.0100 -89.8480 85° East 530 610 37,000  Level FlightAware
02:26PM 43.0180 -89.7420 84° East 531 611 37,000  Level FlightAware
02:27PM 43.0300 -89.5540 85° East 530 610 37,000  Level FlightAware
02:28PM 43.0390 -89.4160 85° East 529 609 37,000  Level FlightAware
02:29PM 43.0470 -89.2950 85° East 530 610 37,000  Level FlightAware
02:30PM 43.0600 -89.0910 85° East 530 610 37,000  Level FlightAware
02:30PM 43.0670 -88.9780 85° East 531 611 37,000  Level FlightAware
02:31PM 43.0720 -88.8820 86° East 528 608 37,000  Level FlightAware
02:31PM 43.0790 -88.7730 85° East 525 604 37,000  Level FlightAware
02:32PM 43.0870 -88.6470 85° East 522 601 37,000  Level FlightAware
02:33PM 43.0990 -88.4190 86° East 520 598 37,000  Level FlightAware
02:34PM 43.1070 -88.2760 86° East 523 602 37,000  Level FlightAware
02:34PM 43.1140 -88.1460 86° East 528 608 37,000  Level FlightAware
02:35PM 43.1190 -88.0560 86° East 527 606 37,000  Level FlightAware
02:36PM 43.1280 -87.8710 86° East 526 605 37,000  Level FlightAware
02:36PM 43.1340 -87.7590 86° East 525 604 37,000  Level FlightAware
02:37PM 43.1390 -87.6550 86° East 524 603 37,000  Level FlightAware
02:38PM 43.1450 -87.5410 86° East 525 604 37,000  Level FlightAware
02:39PM 43.1540 -87.3520 86° East 525 604 37,000  Level FlightAware
02:39PM 43.1620 -87.1520 87° East 523 602 37,000  Level FlightAware
02:40PM 43.1700 -86.9790 86° East 526 605 37,000  Level FlightAware
02:41PM 43.1740 -86.8810 87° East 530 610 37,000  Level FlightAware
02:42PM 43.1840 -86.6510 87° East 535 616 37,000  Level FlightAware
02:43PM 43.1890 -86.5300 87° East 533 613 37,000  Level FlightAware
02:43PM 43.1930 -86.4220 87° East 537 618 37,000  Level FlightAware
02:44PM 43.1980 -86.2450 88° East 536 617 37,000  Level FlightAware
02:45PM 43.1990 -86.1020 89° East 540 621 37,000  Level FlightAware
02:45PM 43.1960 -85.9820 92° East 535 616 37,000 -120 Level FlightAware
02:46PM 43.1830 -85.8550 98° East 531 611 36,900  Descending FlightAware
02:46PM 43.1720 -85.7500 98° East 507 583 37,000 60 Climbing FlightAware
02:47PM 43.1580 -85.6150 98° East 517 595 37,000  Level FlightAware
02:48PM 43.1350 -85.4300 100° East 531 611 37,000  Level FlightAware
02:49PM 43.1110 -85.2410 100° East 534 615 37,000  Level FlightAware
02:50PM 43.1020 -85.1410 97° East 535 616 37,000  Level FlightAware
02:51PM 43.0850 -84.9470 97° East 532 612 37,000  Level FlightAware
02:52PM 43.0640 -84.7330 98° East 530 610 37,000  Level FlightAware
02:53PM 43.0440 -84.5230 97° East 528 608 37,000  Level FlightAware
02:53PM 43.0310 -84.3930 98° East 524 603 37,000  Level FlightAware
02:54PM 43.0200 -84.2820 98° East 524 603 37,000  Level FlightAware
02:55PM 43.0070 -84.1450 97° East 526 605 37,000  Level FlightAware
02:55PM 42.9970 -84.0470 98° East 523 602 37,000  Level FlightAware
02:56PM 42.9860 -83.9400 98° East 527 606 37,000  Level FlightAware
02:56PM 42.9750 -83.8320 98° East 527 606 37,000  Level FlightAware
02:57PM 42.9710 -83.6280 91° East 535 616 37,000  Level FlightAware
02:58PM 42.9780 -83.4520 87° East 535 616 37,000  Level FlightAware
02:59PM 42.9820 -83.3440 87° East 533 613 37,000  Level FlightAware
02:59PM 42.9880 -83.1620 87° East 531 611 37,000  Level FlightAware
03:00PM 42.9910 -83.0830 87° East 531 611 37,000  Level FlightAware
03:01PM 42.9950 -82.9540 88° East 530 610 37,000  Level FlightAware
03:01PM 42.9990 -82.8210 88° East 530 610 37,000  Level FlightAware
03:02PM 43.0000 -82.6940 89° East 534 615 37,000  Level FlightAware
03:03PM 43.0020 -82.5040 89° East 534 615 37,000  Level FlightAware
03:03PM 43.0030 -82.3930 89° East 535 616 37,000  Level FlightAware
03:04PM 43.0030 -82.2830 90° East 537 618 37,000  Level FlightAware
03:05PM 43.0040 -82.1380 89° East 541 623 37,000  Level FlightAware
03:05PM 43.0050 -81.9980 89° East 543 625 37,000  Level FlightAware
03:06PM 43.0050 -81.8940 90° East 545 627 37,000  Level FlightAware
03:06PM 43.0060 -81.7680 89° East 545 627 37,000  Level FlightAware
03:07PM 43.0060 -81.6550 90° East 543 625 37,000  Level FlightAware
03:08PM 43.0060 -81.5280 90° East 541 623 37,000  Level FlightAware
03:08PM 43.0060 -81.4430 90° East 541 623 37,000  Level FlightAware
03:09PM 43.0060 -81.1980 90° East 542 624 37,000  Level FlightAware
03:10PM 43.0050 -81.1010 91° East 545 627 37,000  Level FlightAware
03:10PM 43.0050 -80.9870 90° East 544 626 37,000  Level FlightAware
03:11PM 43.0040 -80.8510 91° East 545 627 37,000  Level FlightAware
03:11PM 43.0040 -80.7720 90° East 545 627 37,000  Level FlightAware
03:12PM 43.0030 -80.6040 90° East 544 626 37,000  Level FlightAware
03:12PM 43.0020 -80.5200 91° East 543 625 37,000  Level FlightAware
03:13PM 43.0010 -80.3910 91° East 544 626 37,000  Level FlightAware
03:14PM 42.9986 -80.1909 91° East 544 626 37,000  Level FlightAware ADS-B (CYHM)
03:15PM 42.9973 -80.0849 91° East 542 624 37,000  Level FlightAware ADS-B (CYHM)
03:15PM 42.9961 -79.9915 91° East 541 623 37,000  Level FlightAware ADS-B (CYHM)
03:16PM 42.9947 -79.8759 91° East 539 620 37,000  Level FlightAware ADS-B (CYHM)
03:17PM 42.9917 -79.6790 91° East 537 618 37,000  Level FlightAware ADS-B (CYHM)
03:17PM 42.9899 -79.5831 91° East 536 617 37,000  Level FlightAware ADS-B (CYHM)
03:18PM 42.9879 -79.4723 91° East 536 617 37,000  Level FlightAware ADS-B (CYHM)
03:18PM 42.9857 -79.3481 91° East 536 617 37,000  Level FlightAware ADS-B (CYHM)
03:19PM 42.9825 -79.1695 91° East 536 617 37,000  Level FlightAware ADS-B (CYHM)
03:20PM 42.9805 -79.0709 92° East 537 618 37,000  Level FlightAware ADS-B (CYHM)
03:21PM 42.9735 -78.7725 92° East 536 617 37,000  Level FlightAware ADS-B (CYHM)
03:22PM 42.9710 -78.6560 92° East 535 616 37,000  Level FlightAware
03:22PM 42.9670 -78.5290 92° East 536 617 37,000  Level FlightAware
03:23PM 42.9650 -78.4250 91° East 537 618 37,000  Level FlightAware
03:24PM 42.9590 -78.2120 92° East 537 618 37,000  Level FlightAware
03:25PM 42.9550 -78.0550 92° East 539 620 37,000  Level FlightAware
03:26PM 42.9660 -77.8640 85° East 544 626 37,000  Level FlightAware
03:26PM 42.9790 -77.6710 85° East 544 626 37,000  Level FlightAware
03:27PM 42.9840 -77.5800 86° East 541 623 37,000  Level FlightAware
03:28PM 42.9790 -77.4460 93° East 538 619 37,000  Level FlightAware
03:28PM 42.9730 -77.3310 94° East 540 621 37,000  Level FlightAware
03:29PM 42.9690 -77.2310 93° East 541 623 37,000  Level FlightAware
03:29PM 42.9630 -77.1070 94° East 542 624 37,000  Level FlightAware
03:30PM 42.9560 -76.9720 94° East 542 624 37,000  Level FlightAware
03:30PM 42.9510 -76.8700 94° East 543 625 37,000  Level FlightAware
03:32PM 42.9380 -76.6430 94° East 548 631 37,000  Level FlightAware
03:32PM 42.9310 -76.5110 94° East 549 632 37,000  Level FlightAware
03:33PM 42.9190 -76.2980 94° East 549 632 37,000  Level FlightAware
03:34PM 42.9130 -76.2020 95° East 548 631 37,000  Level FlightAware
03:34PM 42.9060 -76.0800 94° East 546 628 37,000  Level FlightAware
03:35PM 42.8980 -75.9530 95° East 544 626 37,000  Level FlightAware
03:35PM 42.8920 -75.8460 94° East 543 625 37,000  Level FlightAware
03:36PM 42.8840 -75.7150 95° East 544 626 37,000  Level FlightAware
03:36PM 42.8770 -75.6130 95° East 545 627 37,000  Level FlightAware
03:38PM 42.8620 -75.3750 95° East 545 627 37,000  Level FlightAware
03:38PM 42.8530 -75.2450 95° East 544 626 37,000  Level FlightAware
03:39PM 42.8460 -75.1360 95° East 546 628 37,000  Level FlightAware
03:39PM 42.8360 -74.9970 96° East 552 635 37,000  Level FlightAware
03:40PM 42.8300 -74.8960 95° East 554 638 37,000  Level FlightAware
03:40PM 42.8230 -74.7990 96° East 555 639 37,000  Level FlightAware
03:41PM 42.8140 -74.6790 96° East 555 639 37,000  Level FlightAware
03:42PM 42.8060 -74.5740 96° East 555 639 37,000  Level FlightAware
03:42PM 42.7970 -74.4510 96° East 555 639 37,000  Level FlightAware
03:43PM 42.7880 -74.3380 96° East 552 635 37,000  Level FlightAware
03:43PM 42.7780 -74.1970 95° East 553 636 37,000  Level FlightAware
03:44PM 42.7690 -74.0840 96° East 553 636 37,000  Level FlightAware
03:45PM 42.7500 -73.8380 96° East 551 634 37,000  Level FlightAware
03:45PM 42.7440 -73.7630 96° East 550 633 37,000  Level FlightAware ADS-B (KOWD)
03:46PM 42.7330 -73.6580 98° East 548 631 37,000  Level FlightAware
03:46PM 42.7210 -73.5570 99° East 546 628 37,000 -1,500 Level FlightAware
03:48PM 42.6885 -73.2573 98° East 537 618 34,000 -2,280 Descending FlightAware ADS-B (KOWD)
03:48PM 42.6773 -73.1550 98° East 539 620 32,500 -2,640 Descending FlightAware ADS-B (KOWD)
03:49PM 42.6666 -73.0579 99° East 530 610 31,400 -2,520 Descending FlightAware ADS-B (KSNC)
03:49PM 42.6620 -73.0167 99° East 526 605 30,700 -2,280 Descending FlightAware ADS-B (KSNC)
03:50PM 42.6489 -72.8963 98° East 503 579 29,500 -2,100 Descending FlightAware ADS-B
03:50PM 42.6429 -72.8424 99° East 490 564 28,200 -2,340 Descending FlightAware ADS-B (KSNC)
03:51PM 42.6238 -72.6844 99° East 467 537 26,700 -2,640 Descending FlightAware ADS-B
03:52PM 42.6115 -72.5887 100° East 463 533 25,200 -3,180 Descending FlightAware ADS-B
03:52PM 42.6102 -72.5787 100° East 455 524 23,900 -2,460 Descending FlightAware ADS-B (KOWD)
03:52PM 42.5960 -72.4636 99° East 443 510 23,400 -1,800 Descending FlightAware ADS-B
03:53PM 42.5809 -72.3377 99° East 420 483 21,800 -2,220 Descending FlightAware ADS-B (KSNC)
03:53PM 42.5747 -72.2854 99° East 414 476 20,900 -2,460 Descending FlightAware ADS-B (KOWD)
03:54PM 42.5645 -72.2030 100° East 409 471 19,600 -2,400 Descending FlightAware ADS-B (KSNC)
03:54PM 42.5540 -72.1212 100° East 404 465 18,300 -2,400 Descending FlightAware ADS-B
03:55PM 42.5443 -72.0398 99° East 394 453 16,900 -2,160 Descending FlightAware ADS-B
03:56PM 42.5360 -71.9503 97° East 381 438 15,800 -1,980 Descending FlightAware ADS-B
03:56PM 42.5285 -71.8702 97° East 370 426 14,700 -2,040 Descending FlightAware ADS-B
03:57PM 42.5227 -71.8059 97° East 360 414 13,600 -2,340 Descending FlightAware ADS-B
03:57PM 42.5213 -71.7455 92° East 358 412 12,600 -2,220 Descending FlightAware ADS-B
03:57PM 42.5231 -71.7256 83° East 356 410 12,300 -1,800 Descending FlightAware ADS-B
03:57PM 42.5252 -71.7025 83° East 354 407 12,000 -1,800 Descending FlightAware ADS-B
03:58PM 42.5272 -71.6812 83° East 354 407 11,700 -1,740 Descending FlightAware ADS-B
03:58PM 42.5281 -71.6718 82° East 354 407 11,600 -1,500 Descending FlightAware ADS-B
03:58PM 42.5332 -71.6165 83° East 348 400 10,800 -1,080 Descending FlightAware ADS-B (KOWD)
03:59PM 42.5484 -71.5414 75° East 348 400 10,500 -780 Descending FlightAware ADS-B (KOWD)
03:59PM 42.5645 -71.4680 73° East 336 387 10,000 -840 Descending FlightAware ADS-B
04:00PM 42.5732 -71.4295 73° East 319 367 9,800 -540 Descending FlightAware ADS-B
04:00PM 42.5800 -71.4005 72° East 304 350 9,700 -600 Descending FlightAware ADS-B
04:00PM 42.5860 -71.3741 73° East 297 342 9,500 -480 Descending FlightAware ADS-B
04:00PM 42.5902 -71.3561 72° East 289 333 9,500 -420 Level FlightAware ADS-B
04:01PM 42.5977 -71.3248 72° East 283 326 9,300 -600 Descending FlightAware ADS-B
04:01PM 42.6050 -71.3069 61° Northeast 274 315 9,200 -720 Descending FlightAware ADS-B
04:01PM 42.6098 -71.3001 46° Northeast 270 311 9,100 -600 Descending FlightAware ADS-B (KOWD)
04:01PM 42.6356 -71.2800 30° Northeast 256 295 8,900 -480 Descending FlightAware ADS-B
04:02PM 42.6557 -71.2669 26° Northeast 254 292 8,800 -240 Descending FlightAware ADS-B
04:02PM 42.6693 -71.2578 26° Northeast 266 306 8,800  Level FlightAware ADS-B (KOWD)
04:02PM 42.6782 -71.2485 37° Northeast 267 307 8,800  Level FlightAware ADS-B
04:02PM 42.6850 -71.2351 55° Northeast 261 300 8,800 -360 Level FlightAware ADS-B
04:02PM 42.6879 -71.2219 73° East 257 296 8,700 -780 Descending FlightAware ADS-B
04:02PM 42.6883 -71.2117 88° East 253 291 8,600 -1,140 Descending FlightAware ADS-B (KOWD)
04:02PM 42.6875 -71.2046 98° East 250 288 8,500 -1,320 Descending FlightAware ADS-B
04:03PM 42.6828 -71.1899 113° Southeast 237 273 8,300 -1,320 Descending FlightAware ADS-B
04:03PM 42.6761 -71.1806 135° Southeast 228 262 8,100 -1,080 Descending FlightAware ADS-B
04:03PM 42.6685 -71.1754 154° Southeast 211 243 8,000 -900 Descending FlightAware ADS-B
04:03PM 42.6556 -71.1750 179° South 215 247 7,800 -540 Descending FlightAware ADS-B
04:03PM 42.6463 -71.1797 200° South 207 238 7,800  Level FlightAware ADS-B
04:04PM 42.6284 -71.1904 204° Southwest 212 244 7,800  Level FlightAware ADS-B
04:04PM 42.6114 -71.2004 204° Southwest 208 239 7,800  Level FlightAware ADS-B
04:04PM 42.5927 -71.2115 204° Southwest 210 242 7,800  Level FlightAware ADS-B
04:05PM 42.5778 -71.2203 204° Southwest 206 237 7,800  Level FlightAware ADS-B (KOWD)
04:05PM 42.5631 -71.2292 204° Southwest 205 236 7,800  Level FlightAware ADS-B (KOWD)
04:05PM 42.5531 -71.2354 204° Southwest 205 236 7,800  Level FlightAware ADS-B (KOWD)
04:05PM 42.5334 -71.2474 204° Southwest 206 237 7,800  Level FlightAware ADS-B (KOWD)
04:06PM 42.5277 -71.2503 201° Southwest 205 236 7,800  Level FlightAware ADS-B (KOWD)
04:06PM 42.5217 -71.2515 188° South 210 242 7,800  Level FlightAware ADS-B (KOWD)
04:06PM 42.5105 -71.2481 167° South 215 247 7,800  Level FlightAware ADS-B (KOWD)
04:06PM 42.5025 -71.2398 142° Southeast 227 261 7,800  Level FlightAware ADS-B (KOWD)
04:06PM 42.4954 -71.2191 115° Southeast 231 266 7,800  Level FlightAware ADS-B
04:06PM 42.4950 -71.2101 94° East 243 280 7,800  Level FlightAware ADS-B
04:07PM 42.4956 -71.1878 88° East 248 285 7,800 -180 Level FlightAware ADS-B
04:07PM 42.4966 -71.1559 87° East 246 283 7,700 -780 Descending FlightAware ADS-B
04:07PM 42.4975 -71.1282 87° East 244 281 7,300 -1,140 Descending FlightAware ADS-B
04:08PM 42.4991 -71.0903 87° East 244 281 6,900 -960 Descending FlightAware ADS-B (KOWD)
04:08PM 42.4991 -71.0903 87° East 240 276 6,800 -960 Descending FlightAware ADS-B (KOWD)
04:08PM 42.5007 -71.0497 87° East 240 276 6,500 -1,140 Descending FlightAware ADS-B
04:08PM 42.4985 -71.0235 96° East 229 264 6,100 -1,200 Descending FlightAware ADS-B
04:09PM 42.4950 -71.0156 121° Southeast 218 251 6,000 -1,140 Descending FlightAware ADS-B (KOWD)
04:09PM 42.4922 -71.0114 132° Southeast 216 249 5,900 -600 Descending FlightAware ADS-B
04:09PM 42.4856 -71.0031 137° Southeast 213 245 5,800 -240 Descending FlightAware ADS-B (KOWD)
04:09PM 42.4856 -71.0031 137° Southeast 209 241 5,800  Level FlightAware ADS-B (KOWD)
04:09PM 42.4614 -70.9817 147° Southeast 205 236 5,800  Level FlightAware ADS-B
04:10PM 42.4488 -70.9757 161° South 206 237 5,800  Level FlightAware ADS-B (KOWD)
04:10PM 42.4301 -70.9667 160° South 206 237 5,800  Level FlightAware ADS-B (KOWD)
04:10PM 42.4146 -70.9592 160° South 206 237 5,800  Level FlightAware ADS-B (KOWD)
04:10PM 42.3988 -70.9516 161° South 208 239 5,800  Level FlightAware ADS-B
04:11PM 42.3820 -70.9437 161° South 207 238 5,800  Level FlightAware ADS-B (KOWD)
04:11PM 42.3622 -70.9343 161° South 208 239 5,800  Level FlightAware ADS-B (KOWD)
04:11PM 42.3416 -70.9286 168° South 194 223 5,800  Level FlightAware ADS-B
04:12PM 42.3160 -70.9370 194° South 204 235 5,800  Level FlightAware ADS-B
04:12PM 42.3033 -70.9415 195° South 204 235 5,800 -420 Level FlightAware ADS-B (KOWD)
04:13PM 42.2777 -70.9503 194° South 205 236 5,500 -780 Descending FlightAware ADS-B (KOWD)
04:13PM 42.2587 -70.9567 194° South 197 227 5,300 -900 Descending FlightAware ADS-B
04:13PM 42.2444 -70.9615 194° South 201 231 5,000 -960 Descending FlightAware ADS-B (KOWD)
04:14PM 42.2291 -70.9667 194° South 199 229 4,800 -960 Descending FlightAware ADS-B (KOWD)
04:14PM 42.2140 -70.9718 194° South 199 229 4,500 -1,140 Descending FlightAware ADS-B (KOWD)
04:14PM 42.2049 -70.9750 195° South 197 227 4,100 -1,080 Descending FlightAware ADS-B (KOWD)
04:15PM 42.1780 -70.9848 195° South 197 227 3,800 -480 Descending FlightAware ADS-B (KOWD)
04:15PM 42.1611 -70.9910 195° South 197 227 3,800  Level FlightAware ADS-B (KOWD)
04:15PM 42.1425 -70.9976 195° South 196 226 3,800  Level FlightAware ADS-B (KOWD)
04:15PM 42.1370 -71.0002 200° South 198 228 3,800  Level FlightAware ADS-B (KOWD)
04:15PM 42.1326 -71.0039 212° Southwest 200 230 3,800  Level FlightAware ADS-B (KOWD)
04:16PM 42.1267 -71.0143 233° Southwest 207 238 3,800  Level FlightAware ADS-B (KOWD)
04:16PM 42.1247 -71.0256 257° West 211 243 3,800  Level FlightAware ADS-B (KOWD)
04:16PM 42.1247 -71.0264 265° West 212 244 3,800  Level FlightAware ADS-B (KOWD)
04:16PM 42.1249 -71.0309 274° West 208 239 3,800  Level FlightAware ADS-B (KOWD)
04:16PM 42.1259 -71.0365 283° West 211 243 3,800 -720 Level FlightAware ADS-B (KOWD)
04:16PM 42.1384 -71.0660 300° West 213 245 3,500 -1,200 Descending FlightAware ADS-B (KOWD)
04:16PM 42.1450 -71.0761 311° West 221 254 3,200 -1,440 Descending FlightAware ADS-B (KOWD)
04:17PM 42.1588 -71.0841 337° Northwest 228 262 2,900 -840 Descending FlightAware ADS-B (KOWD)
04:17PM 42.1759 -71.0863 355° North 227 261 2,800 -240 Descending FlightAware ADS-B (KOWD)
04:17PM 42.1901 -71.0873 357° North 227 261 2,800  Level FlightAware ADS-B (KOWD)
04:17PM 42.2021 -71.0845 10° North 226 260 2,800 -420 Level FlightAware ADS-B (KOWD)
04:18PM 42.1958 -71.0866 194° South 229 264 2,600 -960 Descending FlightAware ADS-B (KOWD)
04:18PM 42.2339 -71.0684 20° North 224 258 2,100 -1,260 Descending FlightAware ADS-B (KOWD)
04:19PM 42.2339 -71.0684 20° North 205 236 1,300 -1,080 Descending FlightAware ADS-B (KOWD)
04:20PM 42.3250 -71.0240 20° North 167 192 500 -960 Descending FlightAware
04:20PM 42.3420 -71.0160 19° North 156 180 100 -480 Descending FlightAware
04:21PM 42.3570 -71.0090 19° North 156 180 100  Level FlightAware